Time;durP1;ratioP1;P1;durP2;ratioP2;P2;SDS_P1;SDS_P2;PMS_P1;PMS_P2;Temp;Humidity;BMP_temperature;BMP_pressure;BME280_temperature;BME280_humidity;BME280_pressure;Samples;Min_cycle;Max_cycle;Signal;HPM_P1;HPM_P2
2021/06/27 00:21:47;;;;;;;10.40;4.90;;;;;;;15.38;64.99;100749.46;21565048;78;99627;-91
2021/06/27 00:51:49;;;;;;;10.17;4.87;;;;;;;15.05;66.06;100749.92;21500173;79;100005;-90
2021/06/27 01:21:53;;;;;;;8.25;4.58;;;;;;;14.79;67.22;100735.72;21203535;79;99915;-89
2021/06/27 01:51:54;;;;;;;7.50;4.40;;;;;;;14.53;68.12;100734.16;21167808;78;99370;-88
2021/06/27 02:21:55;;;;;;;8.30;4.40;;;;;;;14.14;70.45;100735.27;20865770;81;99594;-88
2021/06/27 02:51:56;;;;;;;8.77;5.07;;;;;;;13.90;71.98;100746.48;20880578;82;100954;-89
2021/06/27 03:21:57;;;;;;;9.07;5.20;;;;;;;13.71;74.23;100734.97;21032357;82;99650;-90
2021/06/27 03:51:57;;;;;;;9.40;5.20;;;;;;;13.69;75.75;100739.50;21062801;81;100474;-89
2021/06/27 04:21:58;;;;;;;9.80;5.40;;;;;;;13.79;77.04;100739.36;21461445;78;99844;-89
2021/06/27 04:52:00;;;;;;;7.77;3.40;;;;;;;14.49;77.27;100734.73;21466739;79;100739;-89
2021/06/27 05:22:01;;;;;;;7.05;4.50;;;;;;;15.70;75.92;100744.58;21502184;79;99657;-90
2021/06/27 05:52:02;;;;;;;6.47;3.20;;;;;;;17.81;73.45;100751.87;21527971;79;99401;-90
2021/06/27 06:22:04;;;;;;;5.20;2.47;;;;;;;21.19;66.49;100747.71;21536691;79;99421;-92
2021/06/27 06:52:06;;;;;;;3.55;2.65;;;;;;;24.17;58.25;100765.30;21630909;79;99224;-92
2021/06/27 07:52:21;;;;;;;2.77;1.87;;;;;;;28.77;45.86;100757.86;20942373;75;123009;-90
2021/06/27 08:22:23;;;;;;;3.90;1.52;;;;;;;29.65;40.67;100756.83;22544750;76;120660;-94
2021/06/27 08:52:23;;;;;;;2.47;1.80;;;;;;;32.54;38.38;100756.63;22159789;75;235342;-89
2021/06/27 09:22:32;;;;;;;4.90;2.00;;;;;;;34.69;34.79;100752.55;21904931;77;146217;-89
2021/06/27 09:52:45;;;;;;;2.83;1.75;;;;;;;32.35;33.00;100732.80;21985716;77;99425;-93
2021/06/27 10:22:50;;;;;;;2.00;1.70;;;;;;;35.87;31.13;100705.64;22436453;76;5466961;-92
2021/06/27 10:52:58;;;;;;;3.47;2.37;;;;;;;37.22;28.55;100679.76;22537319;75;2199549;-92
2021/06/27 11:23:00;;;;;;;4.12;2.50;;;;;;;35.54;28.81;100658.88;23064886;75;99754;-87
2021/06/27 11:53:10;;;;;;;4.37;2.25;;;;;;;34.99;28.64;100641.71;23012364;75;99539;-87
2021/06/27 12:23:30;;;;;;;5.42;2.67;;;;;;;35.78;27.97;100643.02;22924598;74;1752123;-93
2021/06/27 12:53:36;;;;;;;3.72;2.40;;;;;;;33.34;28.87;100635.51;23050854;74;229268;-89
2021/06/27 13:23:37;;;;;;;3.58;2.22;;;;;;;32.92;30.50;100628.09;22605838;76;99849;-89
2021/06/27 13:53:38;;;;;;;3.10;2.12;;;;;;;32.21;32.68;100615.59;22672943;75;99881;-88
2021/06/27 14:23:41;;;;;;;4.30;1.85;;;;;;;31.36;32.43;100595.31;22951723;75;99491;-89
2021/06/27 14:53:46;;;;;;;4.92;2.25;;;;;;;30.57;32.58;100577.77;23008593;74;99448;-91
2021/06/27 15:23:48;;;;;;;3.62;2.17;;;;;;;30.79;32.32;100567.27;23071851;74;1480940;-93
2021/06/27 15:54:04;;;;;;;7.05;2.40;;;;;;;29.84;34.15;100553.72;23080592;74;5260827;-94
2021/06/27 16:24:19;;;;;;;4.12;2.40;;;;;;;28.91;38.54;100546.55;23110799;74;2117282;-93
2021/06/27 16:54:28;;;;;;;6.40;2.65;;;;;;;27.79;37.52;100534.31;23073809;74;222894;-94
2021/06/27 17:24:35;;;;;;;5.97;2.40;;;;;;;26.72;39.02;100522.16;23115717;74;4708052;-95
2021/06/27 17:54:38;;;;;;;5.22;3.00;;;;;;;25.90;41.09;100516.95;23055166;74;5293207;-93
2021/06/27 18:24:40;;;;;;;5.65;2.80;;;;;;;24.99;43.55;100511.50;22928658;74;3286597;-78
2021/06/27 18:54:40;;;;;;;7.83;3.73;;;;;;;24.14;45.83;100521.53;22747674;76;99811;-80
2021/06/27 19:24:41;;;;;;;9.50;4.58;;;;;;;23.10;49.62;100520.98;22762104;76;99769;-78
2021/06/27 19:54:42;;;;;;;9.53;4.90;;;;;;;21.83;53.80;100551.96;22852916;76;99549;-78
2021/06/27 20:24:43;;;;;;;9.63;4.90;;;;;;;20.82;56.50;100579.00;22836666;76;99383;-78
2021/06/27 20:54:44;;;;;;;9.00;4.23;;;;;;;19.89;59.15;100593.62;22824756;76;99702;-79
2021/06/27 21:24:45;;;;;;;10.38;5.33;;;;;;;19.08;61.74;100593.86;22822990;76;99895;-76
2021/06/27 21:54:46;;;;;;;9.03;5.28;;;;;;;18.44;64.35;100613.84;22438502;76;114605;-91
2021/06/27 22:24:48;;;;;;;7.40;4.28;;;;;;;17.86;66.46;100614.38;21878108;78;99794;-82
2021/06/27 22:54:49;;;;;;;8.30;4.60;;;;;;;17.46;67.89;100633.47;21865341;78;99765;-82
2021/06/27 23:24:50;;;;;;;8.17;4.07;;;;;;;17.03;70.02;100642.13;21978369;79;99422;-82
2021/06/27 23:54:51;;;;;;;8.88;4.10;;;;;;;16.72;70.93;100646.05;22066147;78;99767;-83
